createdAt,value
2023-05-19T00:00:58.380Z,111
2023-05-19T00:02:08.701Z,113
2023-05-19T00:03:16.688Z,110
2023-05-19T00:04:27.074Z,116
2023-05-19T00:05:41.385Z,113
2023-05-19T00:06:48.362Z,120
2023-05-19T00:07:59.862Z,114
2023-05-19T00:09:09.694Z,117
2023-05-19T00:10:20.448Z,115
2023-05-19T00:11:27.639Z,119
2023-05-19T00:12:35.213Z,126
2023-05-19T00:13:44.906Z,120
2023-05-19T00:14:56.586Z,114
2023-05-19T00:16:06.766Z,119
2023-05-19T00:17:20.337Z,117
2023-05-19T00:18:31.216Z,115
2023-05-19T00:19:44.191Z,118
2023-05-19T00:20:51.116Z,121
2023-05-19T00:22:02.620Z,114
2023-05-19T00:23:10.629Z,112
2023-05-19T00:24:21.330Z,114
2023-05-19T00:25:28.153Z,118
2023-05-19T00:26:35.658Z,114
2023-05-19T00:27:49.321Z,117
2023-05-19T00:28:56.260Z,112
2023-05-19T00:30:04.253Z,116
2023-05-19T00:31:17.544Z,115
2023-05-19T00:32:30.779Z,119
2023-05-19T00:33:40.158Z,114
2023-05-19T00:34:47.617Z,115
2023-05-19T00:35:58.331Z,119
2023-05-19T00:37:06.884Z,122
2023-05-19T00:38:18.361Z,129
2023-05-19T00:39:25.277Z,125
2023-05-19T00:40:32.481Z,128
2023-05-19T00:41:39.298Z,132
2023-05-19T00:42:46.312Z,133
2023-05-19T00:43:53.225Z,126
2023-05-19T00:45:06.116Z,132
2023-05-19T00:46:14.293Z,133
2023-05-19T00:47:21.252Z,128
2023-05-19T00:48:30.211Z,124
2023-05-19T00:49:40.605Z,123
2023-05-19T00:50:47.521Z,131
2023-05-19T00:51:58.005Z,132
2023-05-19T00:53:09.089Z,127
2023-05-19T00:54:18.684Z,122
2023-05-19T00:55:28.763Z,121
2023-05-19T00:56:35.684Z,124
2023-05-19T00:57:42.656Z,129
2023-05-19T00:58:49.601Z,119
2023-05-19T00:59:58.793Z,115
2023-05-19T01:01:08.538Z,116
2023-05-19T01:02:19.749Z,113
2023-05-19T01:03:27.947Z,112
2023-05-19T01:04:40.975Z,124
2023-05-19T01:05:50.784Z,121
2023-05-19T01:07:09.014Z,112
2023-05-19T01:08:16.289Z,111
2023-05-19T01:09:30.015Z,105
2023-05-19T01:10:37.081Z,116
2023-05-19T01:11:44.495Z,109
2023-05-19T01:12:54.164Z,112
2023-05-19T01:14:05.240Z,111
2023-05-19T01:15:14.974Z,114
2023-05-19T01:16:26.931Z,109
2023-05-19T01:17:43.113Z,111
2023-05-19T01:18:50.957Z,107
2023-05-19T01:20:03.786Z,105
2023-05-19T01:21:15.804Z,108
2023-05-19T01:22:26.082Z,109
2023-05-19T01:23:40.584Z,118
2023-05-19T01:24:58.198Z,109
2023-05-19T01:26:10.588Z,114
2023-05-19T01:27:32.783Z,111
2023-05-19T01:28:47.966Z,108
2023-05-19T01:30:14.694Z,100
2023-05-19T01:31:33.065Z,102
2023-05-19T01:32:51.961Z,105
2023-05-19T01:35:08.702Z,122
2023-05-19T01:36:15.908Z,105
2023-05-19T01:37:28.273Z,109
2023-05-19T01:38:35.129Z,102
2023-05-19T01:39:51.365Z,106
2023-05-19T01:41:04.409Z,99
2023-05-19T01:42:11.364Z,96
2023-05-19T01:43:18.236Z,102
2023-05-19T01:44:27.949Z,107
2023-05-19T01:45:38.604Z,99
2023-05-19T01:46:50.897Z,100
2023-05-19T01:48:12.434Z,97
2023-05-19T01:49:29.272Z,94
2023-05-19T01:50:40.077Z,103
2023-05-19T01:51:50.101Z,97
2023-05-19T01:52:58.248Z,92
2023-05-19T01:54:06.873Z,92
2023-05-19T01:55:13.783Z,87
2023-05-19T01:56:23.934Z,91
2023-05-19T01:57:42.317Z,89
2023-05-19T01:59:00.812Z,104
2023-05-19T02:00:07.779Z,86
2023-05-19T02:01:22.783Z,89
2023-05-19T02:02:43.635Z,92
2023-05-19T02:04:02.248Z,91
2023-05-19T02:05:20.040Z,91
2023-05-19T02:06:34.998Z,96
2023-05-19T02:07:54.302Z,100
2023-05-19T02:09:11.368Z,100
2023-05-19T02:10:31.755Z,102
2023-05-19T02:11:39.717Z,102
2023-05-19T02:12:52.587Z,101
2023-05-19T02:14:04.812Z,109
2023-05-19T02:15:29.231Z,113
2023-05-19T02:16:42.450Z,108
2023-05-19T02:17:52.412Z,116
2023-05-19T02:19:01.152Z,107
2023-05-19T02:20:08.640Z,104
2023-05-19T02:21:19.566Z,113
2023-05-19T02:22:28.444Z,104
2023-05-19T02:23:36.517Z,102
2023-05-19T02:24:46.490Z,104
2023-05-19T02:25:54.160Z,106
2023-05-19T02:27:04.098Z,108
2023-05-19T02:28:25.936Z,106
2023-05-19T02:29:32.986Z,116
2023-05-19T02:30:43.032Z,119
2023-05-19T02:31:53.420Z,117
2023-05-19T02:33:04.092Z,120
2023-05-19T02:34:16.224Z,114
2023-05-19T02:35:23.085Z,113
2023-05-19T02:36:35.061Z,112
2023-05-19T02:37:46.173Z,119
2023-05-19T02:38:53.059Z,113
2023-05-19T02:40:07.372Z,113
2023-05-19T02:41:14.561Z,112
2023-05-19T02:42:25.210Z,113
2023-05-19T02:43:32.682Z,111
2023-05-19T02:44:45.212Z,104
2023-05-19T02:45:52.079Z,108
2023-05-19T02:47:04.415Z,107
2023-05-19T02:48:12.119Z,102
2023-05-19T02:49:21.968Z,100
2023-05-19T02:50:30.312Z,97
2023-05-19T02:51:39.935Z,102
2023-05-19T02:52:50.552Z,101
2023-05-19T02:54:00.212Z,94
2023-05-19T02:55:09.262Z,93
2023-05-19T02:56:19.224Z,91
2023-05-19T02:57:32.597Z,95
2023-05-19T02:58:40.641Z,95
2023-05-19T02:59:51.149Z,95
2023-05-19T03:00:58.197Z,87
2023-05-19T03:02:07.200Z,96
2023-05-19T03:03:20.242Z,85
2023-05-19T03:04:31.193Z,85
2023-05-19T03:05:38.140Z,85
2023-05-19T03:06:48.356Z,87
2023-05-19T03:07:56.154Z,85
2023-05-19T03:09:10.570Z,83
2023-05-19T03:10:23.607Z,79
2023-05-19T03:11:31.503Z,77
2023-05-19T03:12:42.849Z,75
2023-05-19T03:13:51.810Z,75
2023-05-19T03:15:01.361Z,77
2023-05-19T03:16:12.887Z,76
2023-05-19T03:17:25.710Z,81
2023-05-19T03:18:32.498Z,78
2023-05-19T03:19:45.288Z,75
2023-05-19T03:20:55.859Z,74
2023-05-19T03:22:08.804Z,70
2023-05-19T03:23:18.692Z,70
2023-05-19T03:24:27.730Z,68
2023-05-19T03:25:37.959Z,72
2023-05-19T03:26:49.285Z,85
2023-05-19T03:27:57.011Z,81
2023-05-19T03:29:07.239Z,72
2023-05-19T03:30:17.232Z,77
2023-05-19T03:31:27.119Z,69
2023-05-19T03:32:34.777Z,78
2023-05-19T03:33:47.106Z,70
2023-05-19T03:34:58.039Z,78
2023-05-19T03:36:07.875Z,69
2023-05-19T03:37:15.618Z,71
2023-05-19T03:38:22.664Z,79
2023-05-19T03:39:29.839Z,89
2023-05-19T03:40:44.324Z,86
2023-05-19T03:41:53.968Z,86
2023-05-19T03:43:00.917Z,86
2023-05-19T03:44:13.640Z,92
2023-05-19T03:45:21.536Z,78
2023-05-19T03:46:30.453Z,92
2023-05-19T03:47:37.341Z,94
2023-05-19T03:48:45.144Z,101
2023-05-19T03:49:55.763Z,94
2023-05-19T03:51:03.057Z,108
2023-05-19T03:52:26.088Z,103
2023-05-19T03:53:36.948Z,109
2023-05-19T03:54:44.331Z,110
2023-05-19T03:55:51.230Z,112
2023-05-19T03:56:58.735Z,117
2023-05-19T03:58:09.651Z,111
2023-05-19T03:59:19.524Z,105
2023-05-19T04:00:26.735Z,109
2023-05-19T04:01:33.729Z,103
2023-05-19T04:02:44.015Z,104
2023-05-19T04:03:59.210Z,110
2023-05-19T04:05:09.750Z,111
2023-05-19T04:06:20.213Z,115
2023-05-19T04:07:28.514Z,119
2023-05-19T04:08:38.818Z,121
2023-05-19T04:09:52.127Z,123
2023-05-19T04:11:01.965Z,125
2023-05-19T04:12:10.856Z,115
2023-05-19T04:13:18.433Z,127
2023-05-19T04:14:28.692Z,120
2023-05-19T04:15:44.956Z,115
2023-05-19T04:16:49.658Z,120
2023-05-19T04:18:01.252Z,114
2023-05-19T04:19:17.750Z,114
2023-05-19T04:20:34.690Z,111
2023-05-19T04:21:42.164Z,110
2023-05-19T04:22:51.273Z,107
2023-05-19T04:24:01.258Z,103
2023-05-19T04:25:09.099Z,112
2023-05-19T04:26:16.768Z,106
2023-05-19T04:27:27.829Z,107
2023-05-19T04:28:36.610Z,111
2023-05-19T04:29:44.547Z,108
2023-05-19T04:30:53.796Z,105
2023-05-19T04:32:04.624Z,100
2023-05-19T04:33:12.103Z,105
2023-05-19T04:34:18.971Z,108
2023-05-19T04:35:26.851Z,116
2023-05-19T04:36:34.382Z,108
2023-05-19T04:37:41.450Z,116
2023-05-19T04:38:49.041Z,120
2023-05-19T04:39:59.283Z,118
2023-05-19T04:41:13.686Z,111
2023-05-19T04:42:20.915Z,115
2023-05-19T04:43:30.664Z,116
2023-05-19T04:44:37.772Z,112
2023-05-19T04:45:47.501Z,108
2023-05-19T04:46:57.995Z,102
2023-05-19T04:48:08.430Z,103
2023-05-19T04:49:22.965Z,113
2023-05-19T04:50:33.474Z,116
2023-05-19T04:51:45.455Z,111
2023-05-19T04:52:55.345Z,115
2023-05-19T04:54:02.646Z,111
2023-05-19T04:55:10.111Z,108
2023-05-19T04:56:18.863Z,111
2023-05-19T04:57:26.636Z,117
2023-05-19T04:58:33.667Z,114
2023-05-19T04:59:41.169Z,113
2023-05-19T05:00:48.290Z,116
2023-05-19T05:01:56.045Z,107
2023-05-19T05:03:03.570Z,104
2023-05-19T05:04:11.338Z,104
2023-05-19T05:05:18.222Z,105
2023-05-19T05:10:51.339Z,101
2023-05-19T05:13:45.336Z,95
2023-05-19T05:15:09.851Z,100
2023-05-19T05:16:40.505Z,92
2023-05-19T05:27:27.285Z,96
2023-05-19T05:36:34.127Z,78
2023-05-19T05:38:53.880Z,83
2023-05-19T06:06:05.726Z,47
2023-05-19T06:07:49.121Z,66
2023-05-19T06:09:03.058Z,70
2023-05-19T08:28:34.013Z,42
2023-05-19T08:31:37.225Z,33
2023-05-19T08:38:51.235Z,25
2023-05-19T09:17:46.895Z,29
2023-05-19T09:59:21.844Z,43
2023-05-19T10:01:18.728Z,36
2023-05-19T10:03:25.015Z,45
2023-05-19T10:04:39.912Z,34
2023-05-19T12:17:37.851Z,29
2023-05-19T12:20:08.447Z,44
2023-05-19T12:53:15.132Z,67
2023-05-19T12:55:53.310Z,58
2023-05-19T12:57:00.340Z,50
2023-05-19T12:58:18.028Z,62
2023-05-19T12:59:38.227Z,57
2023-05-19T13:03:59.778Z,59
2023-05-19T13:05:17.646Z,44
2023-05-19T13:06:30.594Z,51
2023-05-19T13:08:08.647Z,67
2023-05-19T13:09:37.104Z,58
2023-05-19T13:10:43.868Z,69
2023-05-19T13:11:55.972Z,64
2023-05-19T13:13:13.446Z,62
2023-05-19T13:14:20.311Z,66
2023-05-19T13:22:08.496Z,55
2023-05-19T13:23:24.079Z,52
2023-05-19T13:25:50.465Z,52
2023-05-19T16:37:23.662Z,97
2023-05-19T16:45:42.867Z,107
2023-05-19T16:56:46.980Z,119
2023-05-19T17:01:18.488Z,120
2023-05-19T17:03:28.510Z,120
2023-05-19T17:05:44.553Z,120
2023-05-19T17:07:18.354Z,125
2023-05-19T17:09:26.111Z,130
2023-05-19T17:10:40.013Z,123
2023-05-19T17:11:49.800Z,113
2023-05-19T17:15:07.711Z,121
2023-05-19T17:54:49.763Z,121
2023-05-19T17:56:03.463Z,123
2023-05-19T17:57:37.442Z,130
2023-05-19T17:59:30.870Z,118
2023-05-19T18:00:42.898Z,116
2023-05-19T18:02:49.517Z,116
2023-05-19T18:05:10.032Z,116
2023-05-19T18:07:37.501Z,122
2023-05-19T18:09:21.503Z,122
2023-05-19T18:10:33.147Z,123
2023-05-19T18:11:45.143Z,114
2023-05-19T18:13:00.823Z,117
2023-05-19T18:14:13.773Z,112
2023-05-19T18:15:23.984Z,118
2023-05-19T18:17:09.780Z,118
2023-05-19T18:18:16.653Z,115
2023-05-19T18:19:52.816Z,115
2023-05-19T18:21:39.224Z,120
2023-05-19T18:25:47.946Z,119
2023-05-19T18:27:05.377Z,118
2023-05-19T18:28:25.322Z,120
2023-05-19T18:30:06.142Z,123
2023-05-19T18:31:28.938Z,123
2023-05-19T18:33:44.165Z,123
2023-05-19T18:35:03.598Z,117
2023-05-19T18:36:15.499Z,116
2023-05-19T18:37:22.332Z,119
2023-05-19T18:38:41.879Z,118
2023-05-19T18:40:09.524Z,120
2023-05-19T18:41:46.573Z,121
2023-05-19T18:43:06.190Z,122
2023-05-19T18:44:14.122Z,125
2023-05-19T18:45:24.682Z,117
2023-05-19T18:47:19.866Z,121
2023-05-19T18:49:01.302Z,116
2023-05-19T18:50:10.397Z,122
2023-05-19T18:52:03.654Z,123
2023-05-19T18:53:18.773Z,107
2023-05-19T18:55:17.255Z,128
2023-05-19T18:56:26.086Z,126
2023-05-19T18:57:49.764Z,114
2023-05-19T19:01:05.366Z,125
2023-05-19T19:03:22.222Z,116
2023-05-19T19:04:32.008Z,113
2023-05-19T19:06:12.234Z,122
2023-05-19T19:07:38.570Z,119
2023-05-19T19:08:46.468Z,116
2023-05-19T19:10:26.973Z,119
2023-05-19T19:11:36.508Z,119
2023-05-19T19:12:46.578Z,118
2023-05-19T19:13:57.275Z,121
2023-05-19T19:15:05.870Z,124
2023-05-19T19:16:20.893Z,126
2023-05-19T19:18:14.131Z,118
2023-05-19T19:19:33.771Z,121
2023-05-19T19:20:58.177Z,122
2023-05-19T19:22:05.161Z,116
2023-05-19T19:23:15.897Z,120
2023-05-19T19:24:40.405Z,116
2023-05-19T19:25:49.394Z,116
2023-05-19T19:27:11.490Z,122
2023-05-19T19:28:41.919Z,113
2023-05-19T19:29:55.326Z,118
2023-05-19T19:31:02.830Z,120
2023-05-19T19:32:41.526Z,125
2023-05-19T19:33:51.396Z,119
2023-05-19T19:35:01.161Z,121
2023-05-19T19:36:28.989Z,122
2023-05-19T19:37:54.731Z,114
2023-05-19T19:39:02.058Z,113
2023-05-19T19:40:09.170Z,112
2023-05-19T19:42:08.582Z,121
2023-05-19T19:44:02.358Z,117
2023-05-19T19:45:33.613Z,116
2023-05-19T19:46:43.817Z,124
2023-05-19T19:47:52.902Z,125
2023-05-19T19:49:08.442Z,118
2023-05-19T19:50:32.353Z,118
2023-05-19T19:51:54.283Z,112
2023-05-19T19:53:02.027Z,116
2023-05-19T19:54:15.294Z,116
2023-05-19T19:55:29.998Z,115
2023-05-19T19:56:46.978Z,116
2023-05-19T19:58:39.387Z,123
2023-05-19T20:01:29.309Z,123
2023-05-19T20:02:55.607Z,117
2023-05-19T20:04:12.363Z,116
2023-05-19T20:06:27.281Z,116
2023-05-19T20:12:43.963Z,108
2023-05-19T20:20:27.523Z,116
2023-05-19T20:24:58.296Z,116
2023-05-19T20:26:32.847Z,117
2023-05-19T20:27:59.358Z,114
2023-05-19T20:29:29.323Z,116
2023-05-19T20:34:55.209Z,122
2023-05-19T20:36:59.381Z,122
2023-05-19T20:49:49.072Z,123
2023-05-19T20:50:56.455Z,119
2023-05-19T20:59:41.865Z,110
2023-05-19T21:00:48.965Z,114
2023-05-19T21:07:59.859Z,107
2023-05-19T21:09:09.687Z,108
2023-05-19T21:10:16.529Z,105
2023-05-19T21:11:23.586Z,106
2023-05-19T21:13:15.211Z,114
2023-05-19T21:15:01.954Z,113
2023-05-19T21:16:18.810Z,107
2023-05-19T21:20:40.224Z,98
2023-05-19T21:21:50.241Z,94
2023-05-19T21:23:09.063Z,97
2023-05-19T21:24:28.789Z,95
2023-05-19T21:25:35.671Z,91
2023-05-19T21:26:58.454Z,87
2023-05-19T21:28:37.421Z,83
2023-05-19T21:30:44.607Z,83
2023-05-19T21:31:58.500Z,83
2023-05-19T21:33:16.943Z,91
2023-05-19T21:35:32.882Z,91
2023-05-19T21:36:39.858Z,96
2023-05-19T21:37:57.593Z,93
2023-05-19T21:39:31.643Z,84
2023-05-19T21:40:49.042Z,91
2023-05-19T21:42:12.573Z,106
2023-05-19T21:44:14.802Z,106
2023-05-19T21:45:24.642Z,99
2023-05-19T21:46:36.595Z,96
2023-05-19T21:48:58.578Z,96
2023-05-19T21:51:01.632Z,96
2023-05-19T21:52:11.468Z,103
2023-05-19T21:53:55.204Z,102
2023-05-19T21:55:40.847Z,99
2023-05-19T21:57:16.646Z,95
2023-05-19T21:58:57.209Z,101
2023-05-19T22:00:44.101Z,96
2023-05-19T22:02:01.015Z,91
2023-05-19T22:03:10.745Z,85
2023-05-19T22:05:47.906Z,85
2023-05-19T22:07:33.630Z,95
2023-05-19T22:09:09.689Z,95
2023-05-19T22:10:31.201Z,98
2023-05-19T22:12:28.680Z,98
2023-05-19T22:13:49.242Z,95
2023-05-19T22:15:02.635Z,90
2023-05-19T22:17:21.402Z,90
2023-05-19T22:18:29.466Z,94
2023-05-19T22:35:02.041Z,104
2023-05-19T22:39:13.005Z,106
2023-05-19T22:41:18.145Z,106
2023-05-19T22:42:52.355Z,103
2023-05-19T22:44:13.175Z,110
2023-05-19T22:45:20.074Z,105
2023-05-19T22:47:10.699Z,112
2023-05-19T22:48:42.831Z,115
2023-05-19T22:50:15.088Z,117
2023-05-19T22:52:01.467Z,118
2023-05-19T22:54:33.901Z,118
2023-05-19T22:55:47.794Z,109
2023-05-19T22:57:46.948Z,110
2023-05-19T22:59:09.415Z,111
2023-05-19T23:00:18.265Z,112
2023-05-19T23:01:27.366Z,122
2023-05-19T23:05:47.054Z,122
2023-05-19T23:07:30.740Z,107
2023-05-19T23:09:21.028Z,111
2023-05-19T23:12:21.054Z,111
2023-05-19T23:16:32.827Z,124
2023-05-19T23:18:03.161Z,109
2023-05-19T23:19:09.971Z,121
2023-05-19T23:20:16.698Z,117
2023-05-19T23:22:45.565Z,117
2023-05-19T23:26:44.717Z,107
2023-05-19T23:28:50.907Z,107
2023-05-19T23:30:02.672Z,101
2023-05-19T23:31:11.928Z,103
2023-05-19T23:32:19.697Z,104
2023-05-19T23:34:13.252Z,109
2023-05-19T23:35:22.091Z,108
2023-05-19T23:36:35.956Z,116
2023-05-19T23:40:51.788Z,105
2023-05-19T23:42:06.583Z,107
2023-05-19T23:43:13.508Z,110
2023-05-19T23:44:20.354Z,114
2023-05-19T23:45:36.956Z,115
2023-05-19T23:47:15.928Z,114
2023-05-19T23:48:22.765Z,108
2023-05-19T23:49:51.700Z,106
2023-05-19T23:51:45.956Z,102
2023-05-19T23:53:30.532Z,105
2023-05-19T23:54:37.331Z,100
2023-05-19T23:55:48.081Z,105
2023-05-19T23:57:57.908Z,105
2023-05-19T23:59:34.886Z,104
